Terminal Aerodrome Forecast
Issued by NWS Pittsburgh, PA

Current Version | Previous Version | Text Only | Print | Product List | Glossary Off
Versions: 1 2 3 4 5 6 7 8 9 10 11 12 13 14 15 16 17 18 19 20 21 22 23 24 25 26 27 28 29 30 31 32 33 34 35 36

713
FTUS41 KPBZ 170909 AAA
TAFPIT
TAF AMD
KPIT 170909Z 1709/1812 00000KT P6SM VCSH OVC008
     FM171100 14003KT 2SM -RA BR OVC015 WS020/20035KT
     FM171600 21012KT 6SM -RA OVC025
     FM172200 24011KT P6SM -RA OVC015=

USA.gov is the U.S. government's official web portal to all federal, state and local government web resources and services.